sensor_id;sensor_type;location;lat;lon;timestamp;pressure;altitude;pressure_sealevel;temperature
66299;BMP180;53098;47.658;8.578;2023-07-30T00:01:32;228747.00;;;220.60
66299;BMP180;53098;47.658;8.578;2023-07-30T00:03:57;228747.00;;;220.60
66299;BMP180;53098;47.658;8.578;2023-07-30T00:06:23;228747.00;;;220.60
66299;BMP180;53098;47.658;8.578;2023-07-30T00:08:48;228747.00;;;220.60
66299;BMP180;53098;47.658;8.578;2023-07-30T00:11:14;228747.00;;;220.60
66299;BMP180;53098;47.658;8.578;2023-07-30T00:13:39;228747.00;;;220.60
66299;BMP180;53098;47.658;8.578;2023-07-30T00:16:05;228747.00;;;220.60
66299;BMP180;53098;47.658;8.578;2023-07-30T00:18:30;228747.00;;;220.60
66299;BMP180;53098;47.658;8.578;2023-07-30T00:20:55;228747.00;;;220.60
66299;BMP180;53098;47.658;8.578;2023-07-30T00:23:21;228747.00;;;220.60
66299;BMP180;53098;47.658;8.578;2023-07-30T00:25:46;228747.00;;;220.60
66299;BMP180;53098;47.658;8.578;2023-07-30T00:28:12;228747.00;;;220.60
66299;BMP180;53098;47.658;8.578;2023-07-30T00:30:37;228747.00;;;220.60
66299;BMP180;53098;47.658;8.578;2023-07-30T00:33:02;228747.00;;;220.60
66299;BMP180;53098;47.658;8.578;2023-07-30T00:35:28;228747.00;;;220.60
66299;BMP180;53098;47.658;8.578;2023-07-30T00:37:53;228747.00;;;220.60
66299;BMP180;53098;47.658;8.578;2023-07-30T00:40:19;228747.00;;;220.60
66299;BMP180;53098;47.658;8.578;2023-07-30T00:42:44;228747.00;;;220.60
66299;BMP180;53098;47.658;8.578;2023-07-30T00:45:10;228747.00;;;220.60
66299;BMP180;53098;47.658;8.578;2023-07-30T00:47:37;228747.00;;;220.60
66299;BMP180;53098;47.658;8.578;2023-07-30T00:50:05;228747.00;;;220.60
66299;BMP180;53098;47.658;8.578;2023-07-30T00:52:30;228747.00;;;220.60
66299;BMP180;53098;47.658;8.578;2023-07-30T00:54:57;228747.00;;;220.60
66299;BMP180;53098;47.658;8.578;2023-07-30T00:57:24;228747.00;;;220.60
66299;BMP180;53098;47.658;8.578;2023-07-30T00:59:51;228747.00;;;220.60
66299;BMP180;53098;47.658;8.578;2023-07-30T01:02:17;228747.00;;;220.60
66299;BMP180;53098;47.658;8.578;2023-07-30T01:04:43;228747.00;;;220.60
66299;BMP180;53098;47.658;8.578;2023-07-30T01:07:09;228747.00;;;220.60
66299;BMP180;53098;47.658;8.578;2023-07-30T01:09:34;228747.00;;;220.60
66299;BMP180;53098;47.658;8.578;2023-07-30T01:12:00;228747.00;;;220.60
66299;BMP180;53098;47.658;8.578;2023-07-30T01:14:27;228747.00;;;220.60
66299;BMP180;53098;47.658;8.578;2023-07-30T01:16:53;228747.00;;;220.60
66299;BMP180;53098;47.658;8.578;2023-07-30T01:19:18;228747.00;;;220.60
66299;BMP180;53098;47.658;8.578;2023-07-30T01:21:44;228747.00;;;220.60
66299;BMP180;53098;47.658;8.578;2023-07-30T01:24:10;228747.00;;;220.60
66299;BMP180;53098;47.658;8.578;2023-07-30T01:27:05;228747.00;;;220.60
66299;BMP180;53098;47.658;8.578;2023-07-30T01:29:41;228747.00;;;220.60
66299;BMP180;53098;47.658;8.578;2023-07-30T01:32:10;228747.00;;;220.60
66299;BMP180;53098;47.658;8.578;2023-07-30T01:34:37;228747.00;;;220.60
66299;BMP180;53098;47.658;8.578;2023-07-30T01:37:05;228747.00;;;220.60
66299;BMP180;53098;47.658;8.578;2023-07-30T01:39:36;228747.00;;;220.60
66299;BMP180;53098;47.658;8.578;2023-07-30T01:42:02;228747.00;;;220.60
66299;BMP180;53098;47.658;8.578;2023-07-30T01:44:28;228747.00;;;220.60
66299;BMP180;53098;47.658;8.578;2023-07-30T01:46:53;228747.00;;;220.60
66299;BMP180;53098;47.658;8.578;2023-07-30T01:49:18;228747.00;;;220.60
66299;BMP180;53098;47.658;8.578;2023-07-30T01:51:44;228747.00;;;220.60
66299;BMP180;53098;47.658;8.578;2023-07-30T01:54:09;228747.00;;;220.60
66299;BMP180;53098;47.658;8.578;2023-07-30T01:56:35;228747.00;;;220.60
66299;BMP180;53098;47.658;8.578;2023-07-30T01:59:00;228747.00;;;220.60
66299;BMP180;53098;47.658;8.578;2023-07-30T02:01:26;228747.00;;;220.60
66299;BMP180;53098;47.658;8.578;2023-07-30T02:03:51;228747.00;;;220.60
66299;BMP180;53098;47.658;8.578;2023-07-30T02:06:16;228747.00;;;220.60
66299;BMP180;53098;47.658;8.578;2023-07-30T02:08:42;228747.00;;;220.60
66299;BMP180;53098;47.658;8.578;2023-07-30T02:11:07;228747.00;;;220.60
66299;BMP180;53098;47.658;8.578;2023-07-30T02:13:33;228747.00;;;220.60
66299;BMP180;53098;47.658;8.578;2023-07-30T02:15:58;228747.00;;;220.60
66299;BMP180;53098;47.658;8.578;2023-07-30T02:18:24;228747.00;;;220.60
66299;BMP180;53098;47.658;8.578;2023-07-30T02:20:49;228747.00;;;220.60
66299;BMP180;53098;47.658;8.578;2023-07-30T02:23:15;228747.00;;;220.60
66299;BMP180;53098;47.658;8.578;2023-07-30T02:25:40;228747.00;;;220.60
66299;BMP180;53098;47.658;8.578;2023-07-30T02:28:06;228747.00;;;220.60
66299;BMP180;53098;47.658;8.578;2023-07-30T02:30:33;228747.00;;;220.60
66299;BMP180;53098;47.658;8.578;2023-07-30T02:32:58;228747.00;;;220.60
66299;BMP180;53098;47.658;8.578;2023-07-30T02:35:24;228747.00;;;220.60
66299;BMP180;53098;47.658;8.578;2023-07-30T02:37:49;228747.00;;;220.60
66299;BMP180;53098;47.658;8.578;2023-07-30T02:40:15;228747.00;;;220.60
66299;BMP180;53098;47.658;8.578;2023-07-30T02:42:40;228747.00;;;220.60
66299;BMP180;53098;47.658;8.578;2023-07-30T02:45:06;228747.00;;;220.60
66299;BMP180;53098;47.658;8.578;2023-07-30T02:47:31;228747.00;;;220.60
66299;BMP180;53098;47.658;8.578;2023-07-30T02:49:57;228747.00;;;220.60
66299;BMP180;53098;47.658;8.578;2023-07-30T02:52:22;228747.00;;;220.60
66299;BMP180;53098;47.658;8.578;2023-07-30T02:54:47;228747.00;;;220.60
66299;BMP180;53098;47.658;8.578;2023-07-30T02:57:13;228747.00;;;220.60
66299;BMP180;53098;47.658;8.578;2023-07-30T02:59:38;228747.00;;;220.60
66299;BMP180;53098;47.658;8.578;2023-07-30T03:02:04;228747.00;;;220.60
66299;BMP180;53098;47.658;8.578;2023-07-30T03:04:30;228747.00;;;220.60
66299;BMP180;53098;47.658;8.578;2023-07-30T03:06:55;228747.00;;;220.60
66299;BMP180;53098;47.658;8.578;2023-07-30T03:09:21;228747.00;;;220.60
66299;BMP180;53098;47.658;8.578;2023-07-30T03:11:46;228747.00;;;220.60
66299;BMP180;53098;47.658;8.578;2023-07-30T03:14:11;228747.00;;;220.60
66299;BMP180;53098;47.658;8.578;2023-07-30T03:16:37;228747.00;;;220.60
66299;BMP180;53098;47.658;8.578;2023-07-30T03:19:02;228747.00;;;220.60
66299;BMP180;53098;47.658;8.578;2023-07-30T03:21:28;228747.00;;;220.60
66299;BMP180;53098;47.658;8.578;2023-07-30T03:23:53;228747.00;;;220.60
66299;BMP180;53098;47.658;8.578;2023-07-30T03:26:19;228747.00;;;220.60
66299;BMP180;53098;47.658;8.578;2023-07-30T03:28:44;228747.00;;;220.60
66299;BMP180;53098;47.658;8.578;2023-07-30T03:31:10;228747.00;;;220.60
66299;BMP180;53098;47.658;8.578;2023-07-30T03:33:36;228747.00;;;220.60
66299;BMP180;53098;47.658;8.578;2023-07-30T03:36:02;228747.00;;;220.60
66299;BMP180;53098;47.658;8.578;2023-07-30T03:38:27;228747.00;;;220.60
66299;BMP180;53098;47.658;8.578;2023-07-30T03:40:53;228747.00;;;220.60
66299;BMP180;53098;47.658;8.578;2023-07-30T03:43:18;228747.00;;;220.60
66299;BMP180;53098;47.658;8.578;2023-07-30T03:45:44;228747.00;;;220.60
66299;BMP180;53098;47.658;8.578;2023-07-30T03:48:09;228747.00;;;220.60
66299;BMP180;53098;47.658;8.578;2023-07-30T03:50:35;228747.00;;;220.60
66299;BMP180;53098;47.658;8.578;2023-07-30T03:53:00;228747.00;;;220.60
66299;BMP180;53098;47.658;8.578;2023-07-30T03:55:26;228747.00;;;220.60
66299;BMP180;53098;47.658;8.578;2023-07-30T03:57:51;228747.00;;;220.60
66299;BMP180;53098;47.658;8.578;2023-07-30T04:00:17;228747.00;;;220.60
66299;BMP180;53098;47.658;8.578;2023-07-30T04:02:42;228747.00;;;220.60
66299;BMP180;53098;47.658;8.578;2023-07-30T04:05:08;228747.00;;;220.60
66299;BMP180;53098;47.658;8.578;2023-07-30T04:07:33;228747.00;;;220.60
66299;BMP180;53098;47.658;8.578;2023-07-30T04:09:58;228747.00;;;220.60
66299;BMP180;53098;47.658;8.578;2023-07-30T04:12:24;228747.00;;;220.60
66299;BMP180;53098;47.658;8.578;2023-07-30T04:14:49;228747.00;;;220.60
66299;BMP180;53098;47.658;8.578;2023-07-30T04:17:15;228747.00;;;220.60
66299;BMP180;53098;47.658;8.578;2023-07-30T04:19:40;228747.00;;;220.60
66299;BMP180;53098;47.658;8.578;2023-07-30T04:22:06;228747.00;;;220.60
66299;BMP180;53098;47.658;8.578;2023-07-30T04:24:31;228747.00;;;220.60
66299;BMP180;53098;47.658;8.578;2023-07-30T04:26:57;228747.00;;;220.60
66299;BMP180;53098;47.658;8.578;2023-07-30T04:29:22;228747.00;;;220.60
66299;BMP180;53098;47.658;8.578;2023-07-30T04:31:47;228747.00;;;220.60
66299;BMP180;53098;47.658;8.578;2023-07-30T04:34:13;228747.00;;;220.60
66299;BMP180;53098;47.658;8.578;2023-07-30T04:36:38;228747.00;;;220.60
66299;BMP180;53098;47.658;8.578;2023-07-30T04:39:04;228747.00;;;220.60
66299;BMP180;53098;47.658;8.578;2023-07-30T04:41:30;228747.00;;;220.60
66299;BMP180;53098;47.658;8.578;2023-07-30T04:43:55;228747.00;;;220.60
66299;BMP180;53098;47.658;8.578;2023-07-30T04:46:21;228747.00;;;220.60
66299;BMP180;53098;47.658;8.578;2023-07-30T04:48:46;228747.00;;;220.60
66299;BMP180;53098;47.658;8.578;2023-07-30T04:51:11;228747.00;;;220.60
66299;BMP180;53098;47.658;8.578;2023-07-30T04:53:37;228747.00;;;220.60
66299;BMP180;53098;47.658;8.578;2023-07-30T04:56:02;228747.00;;;220.60
66299;BMP180;53098;47.658;8.578;2023-07-30T04:58:28;228747.00;;;220.60
66299;BMP180;53098;47.658;8.578;2023-07-30T05:00:53;228747.00;;;220.60
66299;BMP180;53098;47.658;8.578;2023-07-30T05:03:19;228747.00;;;220.60
66299;BMP180;53098;47.658;8.578;2023-07-30T05:05:44;228747.00;;;220.60
66299;BMP180;53098;47.658;8.578;2023-07-30T05:08:09;228747.00;;;220.60
66299;BMP180;53098;47.658;8.578;2023-07-30T05:10:35;228747.00;;;220.60
66299;BMP180;53098;47.658;8.578;2023-07-30T05:13:00;228747.00;;;220.60
66299;BMP180;53098;47.658;8.578;2023-07-30T05:15:26;228747.00;;;220.60
66299;BMP180;53098;47.658;8.578;2023-07-30T05:17:51;228747.00;;;220.60
66299;BMP180;53098;47.658;8.578;2023-07-30T05:20:17;228747.00;;;220.60
66299;BMP180;53098;47.658;8.578;2023-07-30T05:22:42;228747.00;;;220.60
66299;BMP180;53098;47.658;8.578;2023-07-30T05:25:08;228747.00;;;220.60
66299;BMP180;53098;47.658;8.578;2023-07-30T05:27:35;228747.00;;;220.60
66299;BMP180;53098;47.658;8.578;2023-07-30T05:30:01;228747.00;;;220.60
66299;BMP180;53098;47.658;8.578;2023-07-30T05:32:26;228747.00;;;220.60
66299;BMP180;53098;47.658;8.578;2023-07-30T05:34:52;228747.00;;;220.60
66299;BMP180;53098;47.658;8.578;2023-07-30T05:37:17;228747.00;;;220.60
66299;BMP180;53098;47.658;8.578;2023-07-30T05:39:43;228747.00;;;220.60
66299;BMP180;53098;47.658;8.578;2023-07-30T05:42:08;228747.00;;;220.60
66299;BMP180;53098;47.658;8.578;2023-07-30T05:44:34;228747.00;;;220.60
66299;BMP180;53098;47.658;8.578;2023-07-30T05:46:59;228747.00;;;220.60
66299;BMP180;53098;47.658;8.578;2023-07-30T05:49:25;228747.00;;;220.60
66299;BMP180;53098;47.658;8.578;2023-07-30T05:51:50;228747.00;;;220.60
66299;BMP180;53098;47.658;8.578;2023-07-30T05:54:16;228747.00;;;220.60
66299;BMP180;53098;47.658;8.578;2023-07-30T05:56:42;228747.00;;;220.60
66299;BMP180;53098;47.658;8.578;2023-07-30T05:59:07;228747.00;;;220.60
66299;BMP180;53098;47.658;8.578;2023-07-30T06:01:33;228747.00;;;220.60
66299;BMP180;53098;47.658;8.578;2023-07-30T06:03:58;228747.00;;;220.60
66299;BMP180;53098;47.658;8.578;2023-07-30T06:06:24;228747.00;;;220.60
66299;BMP180;53098;47.658;8.578;2023-07-30T06:08:49;228747.00;;;220.60
66299;BMP180;53098;47.658;8.578;2023-07-30T06:11:15;228747.00;;;220.60
66299;BMP180;53098;47.658;8.578;2023-07-30T06:13:40;228747.00;;;220.60
66299;BMP180;53098;47.658;8.578;2023-07-30T06:16:06;228747.00;;;220.60
66299;BMP180;53098;47.658;8.578;2023-07-30T06:18:31;228747.00;;;220.60
66299;BMP180;53098;47.658;8.578;2023-07-30T06:20:56;228747.00;;;220.60
66299;BMP180;53098;47.658;8.578;2023-07-30T06:23:22;228747.00;;;220.60
66299;BMP180;53098;47.658;8.578;2023-07-30T06:25:47;228747.00;;;220.60
66299;BMP180;53098;47.658;8.578;2023-07-30T06:28:13;228747.00;;;220.60
66299;BMP180;53098;47.658;8.578;2023-07-30T06:30:38;228747.00;;;220.60
66299;BMP180;53098;47.658;8.578;2023-07-30T06:33:03;228747.00;;;220.60
66299;BMP180;53098;47.658;8.578;2023-07-30T06:35:29;228747.00;;;220.60
66299;BMP180;53098;47.658;8.578;2023-07-30T06:37:54;228747.00;;;220.60
66299;BMP180;53098;47.658;8.578;2023-07-30T06:40:20;228747.00;;;220.60
66299;BMP180;53098;47.658;8.578;2023-07-30T06:42:45;228747.00;;;220.60
66299;BMP180;53098;47.658;8.578;2023-07-30T06:45:10;228747.00;;;220.60
66299;BMP180;53098;47.658;8.578;2023-07-30T06:47:36;228747.00;;;220.60
66299;BMP180;53098;47.658;8.578;2023-07-30T06:50:02;228747.00;;;220.60
66299;BMP180;53098;47.658;8.578;2023-07-30T06:52:30;228747.00;;;220.60
66299;BMP180;53098;47.658;8.578;2023-07-30T06:54:56;228747.00;;;220.60
66299;BMP180;53098;47.658;8.578;2023-07-30T06:57:21;228747.00;;;220.60
66299;BMP180;53098;47.658;8.578;2023-07-30T06:59:47;228747.00;;;220.60
66299;BMP180;53098;47.658;8.578;2023-07-30T07:02:12;228747.00;;;220.60
66299;BMP180;53098;47.658;8.578;2023-07-30T07:04:38;228747.00;;;220.60
66299;BMP180;53098;47.658;8.578;2023-07-30T07:07:03;228747.00;;;220.60
66299;BMP180;53098;47.658;8.578;2023-07-30T07:09:29;228747.00;;;220.60
66299;BMP180;53098;47.658;8.578;2023-07-30T07:11:54;228747.00;;;220.60
66299;BMP180;53098;47.658;8.578;2023-07-30T07:14:20;228747.00;;;220.60
66299;BMP180;53098;47.658;8.578;2023-07-30T07:16:45;228747.00;;;220.60
66299;BMP180;53098;47.658;8.578;2023-07-30T07:19:11;228747.00;;;220.60
66299;BMP180;53098;47.658;8.578;2023-07-30T07:21:36;228747.00;;;220.60
66299;BMP180;53098;47.658;8.578;2023-07-30T07:24:01;228747.00;;;220.60
66299;BMP180;53098;47.658;8.578;2023-07-30T07:26:27;228747.00;;;220.60
66299;BMP180;53098;47.658;8.578;2023-07-30T07:28:52;228747.00;;;220.60
66299;BMP180;53098;47.658;8.578;2023-07-30T07:31:20;228747.00;;;220.60
66299;BMP180;53098;47.658;8.578;2023-07-30T07:33:46;228747.00;;;220.60
66299;BMP180;53098;47.658;8.578;2023-07-30T07:36:11;228747.00;;;220.60
66299;BMP180;53098;47.658;8.578;2023-07-30T07:38:36;228747.00;;;220.60
66299;BMP180;53098;47.658;8.578;2023-07-30T07:41:02;228747.00;;;220.60
66299;BMP180;53098;47.658;8.578;2023-07-30T07:43:27;228747.00;;;220.60
66299;BMP180;53098;47.658;8.578;2023-07-30T07:45:53;228747.00;;;220.60
66299;BMP180;53098;47.658;8.578;2023-07-30T07:48:18;228747.00;;;220.60
66299;BMP180;53098;47.658;8.578;2023-07-30T07:50:45;228747.00;;;220.60
66299;BMP180;53098;47.658;8.578;2023-07-30T07:53:10;228747.00;;;220.60
66299;BMP180;53098;47.658;8.578;2023-07-30T07:55:36;228747.00;;;220.60
66299;BMP180;53098;47.658;8.578;2023-07-30T07:58:01;228747.00;;;220.60
66299;BMP180;53098;47.658;8.578;2023-07-30T08:00:27;228747.00;;;220.60
66299;BMP180;53098;47.658;8.578;2023-07-30T08:02:52;228747.00;;;220.60
66299;BMP180;53098;47.658;8.578;2023-07-30T08:05:17;228747.00;;;220.60
66299;BMP180;53098;47.658;8.578;2023-07-30T08:07:45;228747.00;;;220.60
66299;BMP180;53098;47.658;8.578;2023-07-30T08:10:11;228747.00;;;220.60
66299;BMP180;53098;47.658;8.578;2023-07-30T08:12:36;228747.00;;;220.60
66299;BMP180;53098;47.658;8.578;2023-07-30T08:15:02;228747.00;;;220.60
66299;BMP180;53098;47.658;8.578;2023-07-30T08:17:27;228747.00;;;220.60
66299;BMP180;53098;47.658;8.578;2023-07-30T08:19:53;228747.00;;;220.60
66299;BMP180;53098;47.658;8.578;2023-07-30T08:22:18;228747.00;;;220.60
66299;BMP180;53098;47.658;8.578;2023-07-30T08:24:43;228747.00;;;220.60
66299;BMP180;53098;47.658;8.578;2023-07-30T08:27:09;228747.00;;;220.60
66299;BMP180;53098;47.658;8.578;2023-07-30T08:29:34;228747.00;;;220.60
66299;BMP180;53098;47.658;8.578;2023-07-30T08:32:00;228747.00;;;220.60
66299;BMP180;53098;47.658;8.578;2023-07-30T08:34:25;228747.00;;;220.60
66299;BMP180;53098;47.658;8.578;2023-07-30T08:36:50;228747.00;;;220.60
66299;BMP180;53098;47.658;8.578;2023-07-30T08:39:17;228747.00;;;220.60
66299;BMP180;53098;47.658;8.578;2023-07-30T08:41:42;228747.00;;;220.60
66299;BMP180;53098;47.658;8.578;2023-07-30T08:44:09;228747.00;;;220.60
66299;BMP180;53098;47.658;8.578;2023-07-30T08:46:34;228747.00;;;220.60
66299;BMP180;53098;47.658;8.578;2023-07-30T08:49:00;228747.00;;;220.60
66299;BMP180;53098;47.658;8.578;2023-07-30T08:51:26;228747.00;;;220.60
66299;BMP180;53098;47.658;8.578;2023-07-30T08:53:52;228747.00;;;220.60
66299;BMP180;53098;47.658;8.578;2023-07-30T08:56:18;228747.00;;;220.60
66299;BMP180;53098;47.658;8.578;2023-07-30T08:58:44;228747.00;;;220.60
66299;BMP180;53098;47.658;8.578;2023-07-30T09:01:11;228747.00;;;220.60
66299;BMP180;53098;47.658;8.578;2023-07-30T09:03:39;228747.00;;;220.60
66299;BMP180;53098;47.658;8.578;2023-07-30T09:06:04;228747.00;;;220.60
66299;BMP180;53098;47.658;8.578;2023-07-30T09:08:30;228747.00;;;220.60
66299;BMP180;53098;47.658;8.578;2023-07-30T09:10:55;228747.00;;;220.60
66299;BMP180;53098;47.658;8.578;2023-07-30T09:13:23;228747.00;;;220.60
66299;BMP180;53098;47.658;8.578;2023-07-30T09:15:49;228747.00;;;220.60
66299;BMP180;53098;47.658;8.578;2023-07-30T09:18:16;228747.00;;;220.60
66299;BMP180;53098;47.658;8.578;2023-07-30T09:20:42;228747.00;;;220.60
66299;BMP180;53098;47.658;8.578;2023-07-30T09:23:08;228747.00;;;220.60
66299;BMP180;53098;47.658;8.578;2023-07-30T09:25:35;228747.00;;;220.60
66299;BMP180;53098;47.658;8.578;2023-07-30T09:28:01;228747.00;;;220.60
66299;BMP180;53098;47.658;8.578;2023-07-30T09:30:27;228747.00;;;220.60
66299;BMP180;53098;47.658;8.578;2023-07-30T09:32:57;228747.00;;;220.60
66299;BMP180;53098;47.658;8.578;2023-07-30T09:35:23;228747.00;;;220.60
66299;BMP180;53098;47.658;8.578;2023-07-30T09:37:49;228747.00;;;220.60
66299;BMP180;53098;47.658;8.578;2023-07-30T09:40:16;228747.00;;;220.60
66299;BMP180;53098;47.658;8.578;2023-07-30T09:42:43;228747.00;;;220.60
66299;BMP180;53098;47.658;8.578;2023-07-30T09:45:23;228747.00;;;220.60
66299;BMP180;53098;47.658;8.578;2023-07-30T09:47:50;228747.00;;;220.60
66299;BMP180;53098;47.658;8.578;2023-07-30T09:50:16;96389.00;;;22.90
66299;BMP180;53098;47.658;8.578;2023-07-30T09:52:42;96392.00;;;22.90
66299;BMP180;53098;47.658;8.578;2023-07-30T09:55:08;96426.00;;;22.70
66299;BMP180;53098;47.658;8.578;2023-07-30T09:57:33;96407.00;;;22.80
66299;BMP180;53098;47.658;8.578;2023-07-30T09:59:59;96416.00;;;22.80
66299;BMP180;53098;47.658;8.578;2023-07-30T10:02:28;96397.00;;;22.40
66299;BMP180;53098;47.658;8.578;2023-07-30T10:04:54;96412.00;;;22.80
66299;BMP180;53098;47.658;8.578;2023-07-30T10:07:23;96389.00;;;22.70
66299;BMP180;53098;47.658;8.578;2023-07-30T10:09:51;96412.00;;;22.60
66299;BMP180;53098;47.658;8.578;2023-07-30T10:12:22;96400.00;;;22.60
66299;BMP180;53098;47.658;8.578;2023-07-30T10:14:48;96414.00;;;22.40
66299;BMP180;53098;47.658;8.578;2023-07-30T10:17:16;96412.00;;;22.40
66299;BMP180;53098;47.658;8.578;2023-07-30T10:19:46;96393.00;;;22.60
66299;BMP180;53098;47.658;8.578;2023-07-30T10:24:38;96411.00;;;22.90
66299;BMP180;53098;47.658;8.578;2023-07-30T10:27:10;96417.00;;;23.10
66299;BMP180;53098;47.658;8.578;2023-07-30T10:29:35;96417.00;;;22.60
66299;BMP180;53098;47.658;8.578;2023-07-30T10:32:01;96418.00;;;23.00
66299;BMP180;53098;47.658;8.578;2023-07-30T10:34:43;96419.00;;;23.20
66299;BMP180;53098;47.658;8.578;2023-07-30T10:37:09;96403.00;;;23.20
66299;BMP180;53098;47.658;8.578;2023-07-30T10:39:34;96418.00;;;23.20
66299;BMP180;53098;47.658;8.578;2023-07-30T10:42:00;96422.00;;;23.50
66299;BMP180;53098;47.658;8.578;2023-07-30T10:44:33;96416.00;;;23.10
66299;BMP180;53098;47.658;8.578;2023-07-30T10:47:01;96429.00;;;23.30
66299;BMP180;53098;47.658;8.578;2023-07-30T10:49:27;96421.00;;;23.30
66299;BMP180;53098;47.658;8.578;2023-07-30T10:51:54;96426.00;;;23.00
66299;BMP180;53098;47.658;8.578;2023-07-30T10:54:20;96418.00;;;23.20
66299;BMP180;53098;47.658;8.578;2023-07-30T10:56:45;96421.00;;;23.20
66299;BMP180;53098;47.658;8.578;2023-07-30T10:59:12;96424.00;;;23.40
66299;BMP180;53098;47.658;8.578;2023-07-30T11:01:42;96426.00;;;23.80
66299;BMP180;53098;47.658;8.578;2023-07-30T11:04:15;96450.00;;;23.90
66299;BMP180;53098;47.658;8.578;2023-07-30T11:06:49;96431.00;;;23.30
66299;BMP180;53098;47.658;8.578;2023-07-30T11:11:44;96443.00;;;23.30
66299;BMP180;53098;47.658;8.578;2023-07-30T11:14:15;96430.00;;;23.30
66299;BMP180;53098;47.658;8.578;2023-07-30T11:16:46;96418.00;;;23.60
66299;BMP180;53098;47.658;8.578;2023-07-30T11:19:12;96440.00;;;23.70
66299;BMP180;53098;47.658;8.578;2023-07-30T11:21:44;96412.00;;;23.70
66299;BMP180;53098;47.658;8.578;2023-07-30T11:24:09;96442.00;;;23.70
66299;BMP180;53098;47.658;8.578;2023-07-30T11:26:35;96404.00;;;23.70
66299;BMP180;53098;47.658;8.578;2023-07-30T11:29:00;96417.00;;;23.60
66299;BMP180;53098;47.658;8.578;2023-07-30T11:31:26;96409.00;;;24.00
66299;BMP180;53098;47.658;8.578;2023-07-30T11:33:51;96430.00;;;23.90
66299;BMP180;53098;47.658;8.578;2023-07-30T11:36:22;96442.00;;;23.50
66299;BMP180;53098;47.658;8.578;2023-07-30T11:38:48;96427.00;;;23.90
66299;BMP180;53098;47.658;8.578;2023-07-30T11:41:14;96419.00;;;23.80
66299;BMP180;53098;47.658;8.578;2023-07-30T11:43:42;96432.00;;;23.70
66299;BMP180;53098;47.658;8.578;2023-07-30T11:46:12;96411.00;;;23.80
66299;BMP180;53098;47.658;8.578;2023-07-30T11:48:40;96431.00;;;23.80
66299;BMP180;53098;47.658;8.578;2023-07-30T11:51:05;96422.00;;;24.20
66299;BMP180;53098;47.658;8.578;2023-07-30T11:54:05;96429.00;;;23.90
66299;BMP180;53098;47.658;8.578;2023-07-30T11:56:31;96429.00;;;24.00
66299;BMP180;53098;47.658;8.578;2023-07-30T11:59:07;96422.00;;;23.70
66299;BMP180;53098;47.658;8.578;2023-07-30T12:01:34;96424.00;;;24.10
66299;BMP180;53098;47.658;8.578;2023-07-30T12:04:01;96437.00;;;24.10
66299;BMP180;53098;47.658;8.578;2023-07-30T12:06:44;96430.00;;;24.30
66299;BMP180;53098;47.658;8.578;2023-07-30T12:09:11;96448.00;;;24.30
66299;BMP180;53098;47.658;8.578;2023-07-30T12:11:47;96434.00;;;24.10
66299;BMP180;53098;47.658;8.578;2023-07-30T12:14:13;96428.00;;;24.00
66299;BMP180;53098;47.658;8.578;2023-07-30T12:16:39;96424.00;;;24.10
66299;BMP180;53098;47.658;8.578;2023-07-30T12:19:05;96426.00;;;24.50
66299;BMP180;53098;47.658;8.578;2023-07-30T12:21:30;96425.00;;;24.20
66299;BMP180;53098;47.658;8.578;2023-07-30T12:23:56;96428.00;;;24.40
66299;BMP180;53098;47.658;8.578;2023-07-30T12:26:21;96434.00;;;24.10
66299;BMP180;53098;47.658;8.578;2023-07-30T12:28:46;96435.00;;;24.50
66299;BMP180;53098;47.658;8.578;2023-07-30T12:31:12;96423.00;;;24.50
66299;BMP180;53098;47.658;8.578;2023-07-30T12:33:37;96438.00;;;24.40
66299;BMP180;53098;47.658;8.578;2023-07-30T12:36:03;96433.00;;;24.30
66299;BMP180;53098;47.658;8.578;2023-07-30T12:38:28;96429.00;;;24.30
66299;BMP180;53098;47.658;8.578;2023-07-30T12:40:54;96427.00;;;24.40
66299;BMP180;53098;47.658;8.578;2023-07-30T12:43:19;96434.00;;;24.50
66299;BMP180;53098;47.658;8.578;2023-07-30T12:45:45;96433.00;;;24.40
66299;BMP180;53098;47.658;8.578;2023-07-30T12:48:10;96415.00;;;24.40
66299;BMP180;53098;47.658;8.578;2023-07-30T12:50:36;96411.00;;;24.70
66299;BMP180;53098;47.658;8.578;2023-07-30T12:53:01;96421.00;;;24.80
66299;BMP180;53098;47.658;8.578;2023-07-30T12:55:26;96417.00;;;24.40
66299;BMP180;53098;47.658;8.578;2023-07-30T12:57:52;96416.00;;;24.30
66299;BMP180;53098;47.658;8.578;2023-07-30T13:00:17;96409.00;;;24.50
66299;BMP180;53098;47.658;8.578;2023-07-30T13:02:43;96424.00;;;24.40
66299;BMP180;53098;47.658;8.578;2023-07-30T13:05:08;96422.00;;;24.40
66299;BMP180;53098;47.658;8.578;2023-07-30T13:07:34;96409.00;;;24.50
66299;BMP180;53098;47.658;8.578;2023-07-30T13:10:06;96410.00;;;24.60
66299;BMP180;53098;47.658;8.578;2023-07-30T13:12:32;96407.00;;;24.50
66299;BMP180;53098;47.658;8.578;2023-07-30T13:14:58;96417.00;;;24.50
66299;BMP180;53098;47.658;8.578;2023-07-30T13:17:24;96404.00;;;24.80
66299;BMP180;53098;47.658;8.578;2023-07-30T13:19:49;96411.00;;;25.00
66299;BMP180;53098;47.658;8.578;2023-07-30T13:22:15;96412.00;;;25.10
66299;BMP180;53098;47.658;8.578;2023-07-30T13:24:40;96416.00;;;25.20
66299;BMP180;53098;47.658;8.578;2023-07-30T13:27:06;96422.00;;;24.80
66299;BMP180;53098;47.658;8.578;2023-07-30T13:29:31;96431.00;;;25.00
66299;BMP180;53098;47.658;8.578;2023-07-30T13:31:57;96427.00;;;24.80
66299;BMP180;53098;47.658;8.578;2023-07-30T13:34:22;96418.00;;;24.90
66299;BMP180;53098;47.658;8.578;2023-07-30T13:36:48;96441.00;;;24.90
66299;BMP180;53098;47.658;8.578;2023-07-30T13:39:13;96426.00;;;24.80
66299;BMP180;53098;47.658;8.578;2023-07-30T13:41:39;96427.00;;;24.80
66299;BMP180;53098;47.658;8.578;2023-07-30T13:44:04;96431.00;;;25.00
66299;BMP180;53098;47.658;8.578;2023-07-30T13:46:30;96438.00;;;24.90
66299;BMP180;53098;47.658;8.578;2023-07-30T13:48:55;96437.00;;;25.10
66299;BMP180;53098;47.658;8.578;2023-07-30T13:51:20;96440.00;;;25.50